sensor_id;sensor_type;location;lat;lon;timestamp;temperature;humidity
58993;DHT22;44782;0.000;0.000;2022-08-03T00:01:50;26.10;54.60
58993;DHT22;44782;0.000;0.000;2022-08-03T00:04:09;26.10;54.60
58993;DHT22;44782;0.000;0.000;2022-08-03T00:06:24;26.10;54.50
58993;DHT22;44782;0.000;0.000;2022-08-03T00:08:40;26.10;54.60
58993;DHT22;44782;0.000;0.000;2022-08-03T00:10:56;26.00;54.50
58993;DHT22;44782;0.000;0.000;2022-08-03T00:13:11;26.10;54.60
58993;DHT22;44782;0.000;0.000;2022-08-03T00:15:27;26.10;54.70
58993;DHT22;44782;0.000;0.000;2022-08-03T00:17:44;26.10;54.60
58993;DHT22;44782;0.000;0.000;2022-08-03T00:19:59;26.10;54.60
58993;DHT22;44782;0.000;0.000;2022-08-03T00:22:15;26.10;54.60
58993;DHT22;44782;0.000;0.000;2022-08-03T00:24:30;26.10;54.60
58993;DHT22;44782;0.000;0.000;2022-08-03T00:26:46;26.10;54.70
58993;DHT22;44782;0.000;0.000;2022-08-03T00:29:02;26.10;54.70
58993;DHT22;44782;0.000;0.000;2022-08-03T00:31:17;26.10;54.70
58993;DHT22;44782;0.000;0.000;2022-08-03T00:33:33;26.00;54.60
58993;DHT22;44782;0.000;0.000;2022-08-03T00:35:49;26.00;54.60
58993;DHT22;44782;0.000;0.000;2022-08-03T00:38:05;26.10;54.70
58993;DHT22;44782;0.000;0.000;2022-08-03T00:40:21;26.10;54.70
58993;DHT22;44782;0.000;0.000;2022-08-03T00:43:06;26.10;54.70
58993;DHT22;44782;0.000;0.000;2022-08-03T00:45:27;26.10;54.60
58993;DHT22;44782;0.000;0.000;2022-08-03T00:47:44;26.10;54.70
58993;DHT22;44782;0.000;0.000;2022-08-03T00:50:00;26.00;54.50
58993;DHT22;44782;0.000;0.000;2022-08-03T00:52:15;26.10;54.60
58993;DHT22;44782;0.000;0.000;2022-08-03T00:54:32;26.00;54.60
58993;DHT22;44782;0.000;0.000;2022-08-03T00:56:49;26.00;54.50
58993;DHT22;44782;0.000;0.000;2022-08-03T00:59:05;26.00;54.60
58993;DHT22;44782;0.000;0.000;2022-08-03T01:01:21;26.00;54.50
58993;DHT22;44782;0.000;0.000;2022-08-03T01:03:37;26.00;54.40
58993;DHT22;44782;0.000;0.000;2022-08-03T01:06:03;26.10;54.50
58993;DHT22;44782;0.000;0.000;2022-08-03T01:08:51;26.00;54.40
58993;DHT22;44782;0.000;0.000;2022-08-03T01:13:52;26.00;54.40
58993;DHT22;44782;0.000;0.000;2022-08-03T01:16:27;26.00;54.30
58993;DHT22;44782;0.000;0.000;2022-08-03T01:19:06;26.00;54.30
58993;DHT22;44782;0.000;0.000;2022-08-03T01:31:09;26.00;54.20
58993;DHT22;44782;0.000;0.000;2022-08-03T01:33:38;26.00;54.80
58993;DHT22;44782;0.000;0.000;2022-08-03T01:36:08;26.00;54.10
58993;DHT22;44782;0.000;0.000;2022-08-03T01:38:33;26.00;54.00
58993;DHT22;44782;0.000;0.000;2022-08-03T01:40:52;26.00;54.10
58993;DHT22;44782;0.000;0.000;2022-08-03T01:43:15;26.00;54.10
58993;DHT22;44782;0.000;0.000;2022-08-03T01:45:32;26.00;54.00
58993;DHT22;44782;0.000;0.000;2022-08-03T01:47:48;26.00;54.10
58993;DHT22;44782;0.000;0.000;2022-08-03T01:50:07;26.00;54.00
58993;DHT22;44782;0.000;0.000;2022-08-03T01:52:24;25.90;53.80
58993;DHT22;44782;0.000;0.000;2022-08-03T01:54:43;26.00;53.90
58993;DHT22;44782;0.000;0.000;2022-08-03T01:56:59;25.90;53.70
58993;DHT22;44782;0.000;0.000;2022-08-03T01:59:18;25.90;53.80
58993;DHT22;44782;0.000;0.000;2022-08-03T02:01:35;25.90;53.70
58993;DHT22;44782;0.000;0.000;2022-08-03T02:03:52;25.90;53.60
58993;DHT22;44782;0.000;0.000;2022-08-03T02:06:10;25.90;53.60
58993;DHT22;44782;0.000;0.000;2022-08-03T02:08:28;25.90;53.60
58993;DHT22;44782;0.000;0.000;2022-08-03T02:10:45;25.90;53.60
58993;DHT22;44782;0.000;0.000;2022-08-03T02:13:04;25.90;53.60
58993;DHT22;44782;0.000;0.000;2022-08-03T02:15:21;25.90;53.60
58993;DHT22;44782;0.000;0.000;2022-08-03T02:17:37;25.90;53.60
58993;DHT22;44782;0.000;0.000;2022-08-03T02:19:56;25.90;53.60
58993;DHT22;44782;0.000;0.000;2022-08-03T02:22:14;25.90;53.50
58993;DHT22;44782;0.000;0.000;2022-08-03T02:24:31;25.90;53.50
58993;DHT22;44782;0.000;0.000;2022-08-03T02:26:48;25.90;53.50
58993;DHT22;44782;0.000;0.000;2022-08-03T02:29:19;25.90;53.50
58993;DHT22;44782;0.000;0.000;2022-08-03T02:31:36;25.90;53.50
58993;DHT22;44782;0.000;0.000;2022-08-03T02:33:56;25.90;53.60
58993;DHT22;44782;0.000;0.000;2022-08-03T02:36:13;25.90;53.50
58993;DHT22;44782;0.000;0.000;2022-08-03T02:38:33;25.90;53.50
58993;DHT22;44782;0.000;0.000;2022-08-03T02:40:50;25.90;53.50
58993;DHT22;44782;0.000;0.000;2022-08-03T02:43:10;25.90;53.50
58993;DHT22;44782;0.000;0.000;2022-08-03T02:45:27;25.80;53.40
58993;DHT22;44782;0.000;0.000;2022-08-03T02:47:44;25.90;53.50
58993;DHT22;44782;0.000;0.000;2022-08-03T02:50:01;25.90;53.50
58993;DHT22;44782;0.000;0.000;2022-08-03T02:52:23;25.90;53.50
58993;DHT22;44782;0.000;0.000;2022-08-03T02:54:40;25.80;53.30
58993;DHT22;44782;0.000;0.000;2022-08-03T02:56:58;25.80;53.40
58993;DHT22;44782;0.000;0.000;2022-08-03T02:59:16;25.80;54.10
58993;DHT22;44782;0.000;0.000;2022-08-03T03:01:32;25.80;53.30
58993;DHT22;44782;0.000;0.000;2022-08-03T03:03:50;25.80;53.30
58993;DHT22;44782;0.000;0.000;2022-08-03T03:06:07;25.80;53.30
58993;DHT22;44782;0.000;0.000;2022-08-03T03:08:24;25.80;53.40
58993;DHT22;44782;0.000;0.000;2022-08-03T03:10:40;25.80;53.30
58993;DHT22;44782;0.000;0.000;2022-08-03T03:12:57;25.80;53.30
58993;DHT22;44782;0.000;0.000;2022-08-03T03:15:13;25.80;53.30
58993;DHT22;44782;0.000;0.000;2022-08-03T03:17:29;25.80;53.30
58993;DHT22;44782;0.000;0.000;2022-08-03T03:19:48;25.80;53.30
58993;DHT22;44782;0.000;0.000;2022-08-03T03:22:06;25.80;53.40
58993;DHT22;44782;0.000;0.000;2022-08-03T03:24:22;25.80;53.30
58993;DHT22;44782;0.000;0.000;2022-08-03T03:26:38;25.80;53.20
58993;DHT22;44782;0.000;0.000;2022-08-03T03:28:54;25.80;53.30
58993;DHT22;44782;0.000;0.000;2022-08-03T03:31:10;25.80;53.30
58993;DHT22;44782;0.000;0.000;2022-08-03T03:33:26;25.80;53.30
58993;DHT22;44782;0.000;0.000;2022-08-03T03:35:42;25.70;53.30
58993;DHT22;44782;0.000;0.000;2022-08-03T03:38:00;25.80;53.30
58993;DHT22;44782;0.000;0.000;2022-08-03T03:40:15;25.70;53.20
58993;DHT22;44782;0.000;0.000;2022-08-03T03:42:31;25.70;53.20
58993;DHT22;44782;0.000;0.000;2022-08-03T03:44:48;25.80;53.30
58993;DHT22;44782;0.000;0.000;2022-08-03T03:47:04;25.80;53.30
58993;DHT22;44782;0.000;0.000;2022-08-03T03:49:20;25.70;53.20
58993;DHT22;44782;0.000;0.000;2022-08-03T03:51:35;25.80;53.30
58993;DHT22;44782;0.000;0.000;2022-08-03T03:53:58;25.70;53.20
58993;DHT22;44782;0.000;0.000;2022-08-03T03:56:14;25.70;53.10
58993;DHT22;44782;0.000;0.000;2022-08-03T03:58:31;25.70;53.20
58993;DHT22;44782;0.000;0.000;2022-08-03T04:00:47;25.70;53.10
58993;DHT22;44782;0.000;0.000;2022-08-03T04:03:02;25.70;53.10
58993;DHT22;44782;0.000;0.000;2022-08-03T04:05:18;25.70;53.80
58993;DHT22;44782;0.000;0.000;2022-08-03T04:07:58;25.70;53.10
58993;DHT22;44782;0.000;0.000;2022-08-03T04:10:36;25.70;53.10
58993;DHT22;44782;0.000;0.000;2022-08-03T04:13:14;25.70;53.10
58993;DHT22;44782;0.000;0.000;2022-08-03T04:15:32;25.70;53.10
58993;DHT22;44782;0.000;0.000;2022-08-03T04:17:49;25.70;53.10
58993;DHT22;44782;0.000;0.000;2022-08-03T04:20:07;25.60;53.00
58993;DHT22;44782;0.000;0.000;2022-08-03T04:22:26;25.70;53.10
58993;DHT22;44782;0.000;0.000;2022-08-03T04:25:00;25.60;52.90
58993;DHT22;44782;0.000;0.000;2022-08-03T04:27:24;25.70;53.00
58993;DHT22;44782;0.000;0.000;2022-08-03T04:29:42;25.70;53.00
58993;DHT22;44782;0.000;0.000;2022-08-03T04:32:00;25.60;53.00
58993;DHT22;44782;0.000;0.000;2022-08-03T04:34:16;25.70;53.00
58993;DHT22;44782;0.000;0.000;2022-08-03T04:36:32;25.70;53.00
58993;DHT22;44782;0.000;0.000;2022-08-03T04:38:59;25.60;52.90
58993;DHT22;44782;0.000;0.000;2022-08-03T04:41:18;25.60;52.80
58993;DHT22;44782;0.000;0.000;2022-08-03T04:43:34;25.60;52.90
58993;DHT22;44782;0.000;0.000;2022-08-03T04:45:51;25.60;53.00
58993;DHT22;44782;0.000;0.000;2022-08-03T04:48:08;25.60;52.90
58993;DHT22;44782;0.000;0.000;2022-08-03T04:50:24;25.60;52.90
58993;DHT22;44782;0.000;0.000;2022-08-03T04:52:43;25.60;52.90
58993;DHT22;44782;0.000;0.000;2022-08-03T04:54:59;25.60;52.90
58993;DHT22;44782;0.000;0.000;2022-08-03T04:57:15;25.60;53.00
58993;DHT22;44782;0.000;0.000;2022-08-03T04:59:30;25.60;53.00
58993;DHT22;44782;0.000;0.000;2022-08-03T05:01:46;25.60;53.10
58993;DHT22;44782;0.000;0.000;2022-08-03T05:04:02;25.60;53.00
58993;DHT22;44782;0.000;0.000;2022-08-03T05:06:18;25.60;53.10
58993;DHT22;44782;0.000;0.000;2022-08-03T05:08:33;25.60;53.10
58993;DHT22;44782;0.000;0.000;2022-08-03T05:10:50;25.60;53.10
58993;DHT22;44782;0.000;0.000;2022-08-03T05:13:06;25.60;53.10
58993;DHT22;44782;0.000;0.000;2022-08-03T05:15:28;25.60;53.10
58993;DHT22;44782;0.000;0.000;2022-08-03T05:17:43;25.50;53.00
58993;DHT22;44782;0.000;0.000;2022-08-03T05:19:59;25.50;53.00
58993;DHT22;44782;0.000;0.000;2022-08-03T05:22:15;25.50;53.00
58993;DHT22;44782;0.000;0.000;2022-08-03T05:24:31;25.50;53.00
58993;DHT22;44782;0.000;0.000;2022-08-03T05:26:46;25.50;53.00
58993;DHT22;44782;0.000;0.000;2022-08-03T05:29:02;25.50;53.00
58993;DHT22;44782;0.000;0.000;2022-08-03T05:31:18;25.50;53.00
58993;DHT22;44782;0.000;0.000;2022-08-03T05:33:34;25.50;53.10
58993;DHT22;44782;0.000;0.000;2022-08-03T05:35:49;25.60;53.20
58993;DHT22;44782;0.000;0.000;2022-08-03T05:38:05;25.50;53.10
58993;DHT22;44782;0.000;0.000;2022-08-03T05:40:21;25.50;53.20
58993;DHT22;44782;0.000;0.000;2022-08-03T05:42:37;25.50;53.30
58993;DHT22;44782;0.000;0.000;2022-08-03T05:44:52;25.50;53.30
58993;DHT22;44782;0.000;0.000;2022-08-03T05:47:08;25.50;53.20
58993;DHT22;44782;0.000;0.000;2022-08-03T05:49:23;25.50;53.10
58993;DHT22;44782;0.000;0.000;2022-08-03T05:51:39;25.50;53.10
58993;DHT22;44782;0.000;0.000;2022-08-03T05:53:55;25.50;53.10
58993;DHT22;44782;0.000;0.000;2022-08-03T05:56:11;25.50;53.10
58993;DHT22;44782;0.000;0.000;2022-08-03T05:58:28;25.40;53.00
58993;DHT22;44782;0.000;0.000;2022-08-03T06:00:45;25.50;53.10
58993;DHT22;44782;0.000;0.000;2022-08-03T06:03:00;25.40;53.10
58993;DHT22;44782;0.000;0.000;2022-08-03T06:05:16;25.40;53.20
58993;DHT22;44782;0.000;0.000;2022-08-03T06:07:32;25.40;53.30
58993;DHT22;44782;0.000;0.000;2022-08-03T06:09:48;25.50;53.30
58993;DHT22;44782;0.000;0.000;2022-08-03T06:12:04;25.40;53.30
58993;DHT22;44782;0.000;0.000;2022-08-03T06:14:19;25.40;53.20
58993;DHT22;44782;0.000;0.000;2022-08-03T06:16:35;25.50;53.20
58993;DHT22;44782;0.000;0.000;2022-08-03T06:18:50;25.50;53.20
58993;DHT22;44782;0.000;0.000;2022-08-03T06:21:06;25.50;53.20
58993;DHT22;44782;0.000;0.000;2022-08-03T06:23:22;25.50;53.10
58993;DHT22;44782;0.000;0.000;2022-08-03T06:25:40;25.50;53.20
58993;DHT22;44782;0.000;0.000;2022-08-03T06:27:57;25.50;53.20
58993;DHT22;44782;0.000;0.000;2022-08-03T06:30:13;25.50;53.20
58993;DHT22;44782;0.000;0.000;2022-08-03T06:32:29;25.50;53.30
58993;DHT22;44782;0.000;0.000;2022-08-03T06:34:45;25.50;53.30
58993;DHT22;44782;0.000;0.000;2022-08-03T06:37:00;25.50;53.40
58993;DHT22;44782;0.000;0.000;2022-08-03T06:39:16;25.50;53.30
58993;DHT22;44782;0.000;0.000;2022-08-03T06:41:32;25.50;53.30
58993;DHT22;44782;0.000;0.000;2022-08-03T06:43:48;25.50;53.30
58993;DHT22;44782;0.000;0.000;2022-08-03T06:46:04;25.50;53.30
58993;DHT22;44782;0.000;0.000;2022-08-03T06:48:20;25.50;53.30
58993;DHT22;44782;0.000;0.000;2022-08-03T06:50:40;25.60;53.40
58993;DHT22;44782;0.000;0.000;2022-08-03T06:52:58;25.60;53.40
58993;DHT22;44782;0.000;0.000;2022-08-03T06:55:14;25.50;53.40
58993;DHT22;44782;0.000;0.000;2022-08-03T06:57:30;25.60;53.40
58993;DHT22;44782;0.000;0.000;2022-08-03T06:59:46;25.60;53.50
58993;DHT22;44782;0.000;0.000;2022-08-03T07:02:01;25.60;53.50
58993;DHT22;44782;0.000;0.000;2022-08-03T07:04:17;25.60;53.50
58993;DHT22;44782;0.000;0.000;2022-08-03T07:06:32;25.60;53.50
58993;DHT22;44782;0.000;0.000;2022-08-03T07:08:48;25.60;53.50
58993;DHT22;44782;0.000;0.000;2022-08-03T07:11:04;25.60;53.50
58993;DHT22;44782;0.000;0.000;2022-08-03T07:13:19;25.60;53.50
58993;DHT22;44782;0.000;0.000;2022-08-03T07:15:35;25.60;54.20
58993;DHT22;44782;0.000;0.000;2022-08-03T07:17:52;25.60;53.60
58993;DHT22;44782;0.000;0.000;2022-08-03T07:20:07;25.60;53.60
58993;DHT22;44782;0.000;0.000;2022-08-03T07:22:23;25.60;53.60
58993;DHT22;44782;0.000;0.000;2022-08-03T07:24:39;25.70;53.70
58993;DHT22;44782;0.000;0.000;2022-08-03T07:26:56;25.70;53.70
58993;DHT22;44782;0.000;0.000;2022-08-03T07:29:11;25.60;53.60
58993;DHT22;44782;0.000;0.000;2022-08-03T07:31:27;25.60;53.60
58993;DHT22;44782;0.000;0.000;2022-08-03T07:33:43;25.70;53.70
58993;DHT22;44782;0.000;0.000;2022-08-03T07:35:58;25.70;53.70
58993;DHT22;44782;0.000;0.000;2022-08-03T07:38:14;25.70;53.60
58993;DHT22;44782;0.000;0.000;2022-08-03T07:40:30;25.70;53.60
58993;DHT22;44782;0.000;0.000;2022-08-03T07:42:46;25.70;53.60
58993;DHT22;44782;0.000;0.000;2022-08-03T07:45:01;25.70;53.60
58993;DHT22;44782;0.000;0.000;2022-08-03T07:47:29;25.70;53.50
58993;DHT22;44782;0.000;0.000;2022-08-03T07:49:45;25.70;53.40
58993;DHT22;44782;0.000;0.000;2022-08-03T07:52:00;25.80;53.60
58993;DHT22;44782;0.000;0.000;2022-08-03T07:54:34;25.70;53.50
58993;DHT22;44782;0.000;0.000;2022-08-03T07:56:50;25.70;53.50
58993;DHT22;44782;0.000;0.000;2022-08-03T07:59:06;25.80;53.40
58993;DHT22;44782;0.000;0.000;2022-08-03T08:01:22;25.80;53.50
58993;DHT22;44782;0.000;0.000;2022-08-03T08:03:38;25.80;53.40
58993;DHT22;44782;0.000;0.000;2022-08-03T08:05:54;25.80;53.40
58993;DHT22;44782;0.000;0.000;2022-08-03T08:08:09;25.80;53.40
58993;DHT22;44782;0.000;0.000;2022-08-03T08:10:26;25.80;53.40
58993;DHT22;44782;0.000;0.000;2022-08-03T08:12:41;25.80;54.10
58993;DHT22;44782;0.000;0.000;2022-08-03T08:14:57;25.80;53.30
58993;DHT22;44782;0.000;0.000;2022-08-03T08:17:13;25.90;53.30
58993;DHT22;44782;0.000;0.000;2022-08-03T08:19:29;25.80;53.30
58993;DHT22;44782;0.000;0.000;2022-08-03T08:21:44;25.80;53.30
58993;DHT22;44782;0.000;0.000;2022-08-03T08:24:00;25.90;53.30
58993;DHT22;44782;0.000;0.000;2022-08-03T08:26:16;25.90;53.30
58993;DHT22;44782;0.000;0.000;2022-08-03T08:28:31;25.90;53.30
58993;DHT22;44782;0.000;0.000;2022-08-03T08:30:47;25.90;53.20
58993;DHT22;44782;0.000;0.000;2022-08-03T08:33:03;25.90;53.20
58993;DHT22;44782;0.000;0.000;2022-08-03T08:35:19;25.90;53.20
58993;DHT22;44782;0.000;0.000;2022-08-03T08:37:34;25.90;53.80
58993;DHT22;44782;0.000;0.000;2022-08-03T08:39:50;25.90;53.10
58993;DHT22;44782;0.000;0.000;2022-08-03T08:42:06;25.90;53.10
58993;DHT22;44782;0.000;0.000;2022-08-03T08:44:21;25.90;53.10
58993;DHT22;44782;0.000;0.000;2022-08-03T08:46:37;25.90;53.00
58993;DHT22;44782;0.000;0.000;2022-08-03T08:48:54;25.90;53.00
58993;DHT22;44782;0.000;0.000;2022-08-03T08:51:11;25.90;53.00
58993;DHT22;44782;0.000;0.000;2022-08-03T08:53:28;25.90;53.00
58993;DHT22;44782;0.000;0.000;2022-08-03T08:55:46;25.90;52.90
58993;DHT22;44782;0.000;0.000;2022-08-03T08:58:05;25.90;52.80
58993;DHT22;44782;0.000;0.000;2022-08-03T09:00:20;26.00;52.90
58993;DHT22;44782;0.000;0.000;2022-08-03T09:02:36;25.90;52.80
58993;DHT22;44782;0.000;0.000;2022-08-03T09:04:52;26.00;52.90
58993;DHT22;44782;0.000;0.000;2022-08-03T09:07:08;26.00;52.80
58993;DHT22;44782;0.000;0.000;2022-08-03T09:09:24;26.00;52.90
58993;DHT22;44782;0.000;0.000;2022-08-03T09:11:41;26.00;52.80
58993;DHT22;44782;0.000;0.000;2022-08-03T09:13:57;26.00;52.70
58993;DHT22;44782;0.000;0.000;2022-08-03T09:16:19;26.00;52.70
58993;DHT22;44782;0.000;0.000;2022-08-03T09:18:36;26.00;52.70
58993;DHT22;44782;0.000;0.000;2022-08-03T09:23:47;26.00;52.30
58993;DHT22;44782;0.000;0.000;2022-08-03T09:26:03;26.10;52.40
58993;DHT22;44782;0.000;0.000;2022-08-03T09:28:19;26.10;52.70
58993;DHT22;44782;0.000;0.000;2022-08-03T09:30:36;26.00;52.80
58993;DHT22;44782;0.000;0.000;2022-08-03T09:32:59;26.10;52.80
58993;DHT22;44782;0.000;0.000;2022-08-03T09:35:15;26.10;52.80
58993;DHT22;44782;0.000;0.000;2022-08-03T09:37:31;26.10;52.90
58993;DHT22;44782;0.000;0.000;2022-08-03T09:39:46;26.10;52.90
58993;DHT22;44782;0.000;0.000;2022-08-03T09:44:39;26.10;52.80
58993;DHT22;44782;0.000;0.000;2022-08-03T09:46:58;26.10;52.70
58993;DHT22;44782;0.000;0.000;2022-08-03T09:49:14;26.10;52.80
58993;DHT22;44782;0.000;0.000;2022-08-03T09:51:29;26.10;52.80
58993;DHT22;44782;0.000;0.000;2022-08-03T09:53:45;26.10;52.80
58993;DHT22;44782;0.000;0.000;2022-08-03T09:56:01;26.10;52.80
58993;DHT22;44782;0.000;0.000;2022-08-03T09:58:19;26.20;52.90
58993;DHT22;44782;0.000;0.000;2022-08-03T10:00:52;26.20;52.70
58993;DHT22;44782;0.000;0.000;2022-08-03T10:03:09;26.20;52.50
58993;DHT22;44782;0.000;0.000;2022-08-03T10:05:31;26.20;52.70
58993;DHT22;44782;0.000;0.000;2022-08-03T10:07:48;26.20;52.60
58993;DHT22;44782;0.000;0.000;2022-08-03T10:10:05;26.10;52.70
58993;DHT22;44782;0.000;0.000;2022-08-03T10:12:21;26.10;52.70
58993;DHT22;44782;0.000;0.000;2022-08-03T10:14:38;26.20;52.70
58993;DHT22;44782;0.000;0.000;2022-08-03T10:16:54;26.20;52.60
58993;DHT22;44782;0.000;0.000;2022-08-03T10:19:09;26.10;52.60
58993;DHT22;44782;0.000;0.000;2022-08-03T10:21:26;26.20;52.60
58993;DHT22;44782;0.000;0.000;2022-08-03T10:23:46;26.20;52.70
58993;DHT22;44782;0.000;0.000;2022-08-03T10:26:04;26.20;52.60
58993;DHT22;44782;0.000;0.000;2022-08-03T10:28:21;26.20;52.60
58993;DHT22;44782;0.000;0.000;2022-08-03T10:30:40;26.10;52.50
58993;DHT22;44782;0.000;0.000;2022-08-03T10:33:04;26.20;52.50
58993;DHT22;44782;0.000;0.000;2022-08-03T10:35:23;26.20;52.60
58993;DHT22;44782;0.000;0.000;2022-08-03T10:38:00;26.20;52.60
58993;DHT22;44782;0.000;0.000;2022-08-03T10:40:17;26.20;52.80
58993;DHT22;44782;0.000;0.000;2022-08-03T10:42:36;26.10;52.70
58993;DHT22;44782;0.000;0.000;2022-08-03T10:44:59;26.10;52.70
58993;DHT22;44782;0.000;0.000;2022-08-03T10:47:17;26.20;52.80
58993;DHT22;44782;0.000;0.000;2022-08-03T10:49:33;26.20;52.80
58993;DHT22;44782;0.000;0.000;2022-08-03T10:51:48;26.20;52.80
58993;DHT22;44782;0.000;0.000;2022-08-03T10:54:04;26.20;52.80
58993;DHT22;44782;0.000;0.000;2022-08-03T10:56:46;26.20;52.90
58993;DHT22;44782;0.000;0.000;2022-08-03T11:02:00;26.10;53.10
58993;DHT22;44782;0.000;0.000;2022-08-03T11:04:21;26.10;53.00
58993;DHT22;44782;0.000;0.000;2022-08-03T11:06:38;26.10;52.90
58993;DHT22;44782;0.000;0.000;2022-08-03T11:11:25;26.20;52.90
58993;DHT22;44782;0.000;0.000;2022-08-03T11:14:13;26.20;52.90
58993;DHT22;44782;0.000;0.000;2022-08-03T11:16:36;26.10;52.80
58993;DHT22;44782;0.000;0.000;2022-08-03T11:18:59;26.10;53.00
58993;DHT22;44782;0.000;0.000;2022-08-03T11:21:15;26.10;52.80
58993;DHT22;44782;0.000;0.000;2022-08-03T11:23:46;26.10;52.90
58993;DHT22;44782;0.000;0.000;2022-08-03T11:26:10;26.10;52.70
58993;DHT22;44782;0.000;0.000;2022-08-03T11:28:27;26.20;52.80
58993;DHT22;44782;0.000;0.000;2022-08-03T11:30:43;26.10;52.80
58993;DHT22;44782;0.000;0.000;2022-08-03T11:32:59;26.10;52.80
58993;DHT22;44782;0.000;0.000;2022-08-03T11:35:56;26.10;52.80
58993;DHT22;44782;0.000;0.000;2022-08-03T11:38:12;26.20;52.80
58993;DHT22;44782;0.000;0.000;2022-08-03T11:40:47;26.20;53.20
58993;DHT22;44782;0.000;0.000;2022-08-03T11:43:08;26.10;52.90
58993;DHT22;44782;0.000;0.000;2022-08-03T11:45:24;26.10;52.90
58993;DHT22;44782;0.000;0.000;2022-08-03T11:47:40;26.10;53.00
58993;DHT22;44782;0.000;0.000;2022-08-03T11:49:58;26.20;53.20
58993;DHT22;44782;0.000;0.000;2022-08-03T11:52:16;26.20;53.30
58993;DHT22;44782;0.000;0.000;2022-08-03T11:54:32;26.10;53.20
58993;DHT22;44782;0.000;0.000;2022-08-03T11:56:49;26.20;53.30
58993;DHT22;44782;0.000;0.000;2022-08-03T11:59:05;26.20;53.20
58993;DHT22;44782;0.000;0.000;2022-08-03T12:01:21;26.20;53.10
58993;DHT22;44782;0.000;0.000;2022-08-03T12:03:37;26.20;53.30
58993;DHT22;44782;0.000;0.000;2022-08-03T12:05:53;26.20;53.10
58993;DHT22;44782;0.000;0.000;2022-08-03T12:08:10;26.20;53.20
58993;DHT22;44782;0.000;0.000;2022-08-03T12:10:26;26.20;52.90
58993;DHT22;44782;0.000;0.000;2022-08-03T12:12:42;26.20;52.80
58993;DHT22;44782;0.000;0.000;2022-08-03T12:14:57;26.20;53.10
58993;DHT22;44782;0.000;0.000;2022-08-03T12:17:13;26.20;53.10
58993;DHT22;44782;0.000;0.000;2022-08-03T12:19:41;26.20;53.20
58993;DHT22;44782;0.000;0.000;2022-08-03T12:21:56;26.20;52.70
58993;DHT22;44782;0.000;0.000;2022-08-03T12:24:12;26.20;52.90
58993;DHT22;44782;0.000;0.000;2022-08-03T12:26:29;26.20;52.90
58993;DHT22;44782;0.000;0.000;2022-08-03T12:28:48;26.20;52.70
58993;DHT22;44782;0.000;0.000;2022-08-03T12:31:07;26.20;52.80
58993;DHT22;44782;0.000;0.000;2022-08-03T12:33:27;26.20;52.70
58993;DHT22;44782;0.000;0.000;2022-08-03T12:35:42;26.20;52.90
58993;DHT22;44782;0.000;0.000;2022-08-03T12:37:58;26.20;53.10
58993;DHT22;44782;0.000;0.000;2022-08-03T12:40:14;26.20;52.90
58993;DHT22;44782;0.000;0.000;2022-08-03T12:42:34;26.20;52.80
58993;DHT22;44782;0.000;0.000;2022-08-03T12:44:50;26.20;52.90
58993;DHT22;44782;0.000;0.000;2022-08-03T12:47:08;26.20;53.00
58993;DHT22;44782;0.000;0.000;2022-08-03T12:49:25;26.20;52.70
58993;DHT22;44782;0.000;0.000;2022-08-03T12:54:00;26.20;52.80
58993;DHT22;44782;0.000;0.000;2022-08-03T12:56:15;26.20;52.80
58993;DHT22;44782;0.000;0.000;2022-08-03T12:58:34;26.20;52.70
58993;DHT22;44782;0.000;0.000;2022-08-03T13:00:55;26.30;52.70
58993;DHT22;44782;0.000;0.000;2022-08-03T13:03:11;26.30;52.70
58993;DHT22;44782;0.000;0.000;2022-08-03T13:05:27;26.30;52.70
58993;DHT22;44782;0.000;0.000;2022-08-03T13:07:44;26.30;52.60
58993;DHT22;44782;0.000;0.000;2022-08-03T13:10:00;26.30;52.60
58993;DHT22;44782;0.000;0.000;2022-08-03T13:12:21;26.30;52.90
58993;DHT22;44782;0.000;0.000;2022-08-03T13:14:37;26.30;53.10
58993;DHT22;44782;0.000;0.000;2022-08-03T13:16:53;26.30;53.40
58993;DHT22;44782;0.000;0.000;2022-08-03T13:19:09;26.30;53.20
58993;DHT22;44782;0.000;0.000;2022-08-03T13:21:26;26.30;53.20
58993;DHT22;44782;0.000;0.000;2022-08-03T13:23:42;26.30;53.50
58993;DHT22;44782;0.000;0.000;2022-08-03T13:25:58;26.30;53.70
58993;DHT22;44782;0.000;0.000;2022-08-03T13:28:14;26.40;53.80
58993;DHT22;44782;0.000;0.000;2022-08-03T13:30:29;26.40;54.00
58993;DHT22;44782;0.000;0.000;2022-08-03T13:32:45;26.40;54.10
58993;DHT22;44782;0.000;0.000;2022-08-03T13:35:01;26.40;54.20
58993;DHT22;44782;0.000;0.000;2022-08-03T13:37:17;26.40;54.50
58993;DHT22;44782;0.000;0.000;2022-08-03T13:39:33;26.50;54.70
58993;DHT22;44782;0.000;0.000;2022-08-03T13:41:48;26.40;54.60
58993;DHT22;44782;0.000;0.000;2022-08-03T13:44:04;26.40;54.70
58993;DHT22;44782;0.000;0.000;2022-08-03T13:46:20;26.50;55.00
58993;DHT22;44782;0.000;0.000;2022-08-03T13:48:35;26.50;55.00
58993;DHT22;44782;0.000;0.000;2022-08-03T13:50:51;26.50;55.10
58993;DHT22;44782;0.000;0.000;2022-08-03T13:53:06;26.50;55.20
58993;DHT22;44782;0.000;0.000;2022-08-03T13:55:22;26.50;55.40
58993;DHT22;44782;0.000;0.000;2022-08-03T13:57:38;26.60;55.30
58993;DHT22;44782;0.000;0.000;2022-08-03T13:59:54;26.60;55.20
58993;DHT22;44782;0.000;0.000;2022-08-03T14:02:09;26.60;55.10
58993;DHT22;44782;0.000;0.000;2022-08-03T14:04:25;26.60;55.10
58993;DHT22;44782;0.000;0.000;2022-08-03T14:06:41;26.60;55.00
58993;DHT22;44782;0.000;0.000;2022-08-03T14:08:58;26.60;55.10
58993;DHT22;44782;0.000;0.000;2022-08-03T14:11:14;26.60;55.00
58993;DHT22;44782;0.000;0.000;2022-08-03T14:13:30;26.60;55.00
58993;DHT22;44782;0.000;0.000;2022-08-03T14:15:46;26.70;54.90
58993;DHT22;44782;0.000;0.000;2022-08-03T14:18:02;26.70;54.80
58993;DHT22;44782;0.000;0.000;2022-08-03T14:20:17;26.70;54.90
58993;DHT22;44782;0.000;0.000;2022-08-03T14:22:33;26.70;54.90
58993;DHT22;44782;0.000;0.000;2022-08-03T14:24:49;26.70;55.10
58993;DHT22;44782;0.000;0.000;2022-08-03T14:27:04;26.70;55.20
58993;DHT22;44782;0.000;0.000;2022-08-03T14:29:20;26.70;54.90
58993;DHT22;44782;0.000;0.000;2022-08-03T14:31:36;26.70;55.00
58993;DHT22;44782;0.000;0.000;2022-08-03T14:33:52;26.70;54.90
58993;DHT22;44782;0.000;0.000;2022-08-03T14:36:07;26.70;54.90
58993;DHT22;44782;0.000;0.000;2022-08-03T14:38:23;26.70;54.90
58993;DHT22;44782;0.000;0.000;2022-08-03T14:40:39;26.80;55.00
58993;DHT22;44782;0.000;0.000;2022-08-03T14:42:54;26.70;54.90
58993;DHT22;44782;0.000;0.000;2022-08-03T14:45:10;26.80;55.00
58993;DHT22;44782;0.000;0.000;2022-08-03T14:47:30;26.80;54.90
58993;DHT22;44782;0.000;0.000;2022-08-03T14:49:45;26.80;54.90
58993;DHT22;44782;0.000;0.000;2022-08-03T14:52:01;26.80;54.80
58993;DHT22;44782;0.000;0.000;2022-08-03T14:54:17;26.80;54.70
58993;DHT22;44782;0.000;0.000;2022-08-03T14:56:32;26.80;54.70
58993;DHT22;44782;0.000;0.000;2022-08-03T14:58:48;26.80;55.00
58993;DHT22;44782;0.000;0.000;2022-08-03T15:01:04;26.80;55.10
58993;DHT22;44782;0.000;0.000;2022-08-03T15:03:20;26.90;55.00
58993;DHT22;44782;0.000;0.000;2022-08-03T15:05:38;26.80;54.70
58993;DHT22;44782;0.000;0.000;2022-08-03T15:07:54;26.90;55.50
58993;DHT22;44782;0.000;0.000;2022-08-03T15:10:10;26.90;54.80